EGLL/LHR METAR and TAF weather

Enter ICAO airport designator
Station Type Date Time Source
EGLL METAR 2018/10/21 03:50 UTC NOAA

EGLL 210350Z VRB03KT 1400 0600SW R27R/P1500 BR BCFG BKN001 09/08 Q1029


Station Type Date Time Source
EGLL Decoded METAR 2018/10/21 03:50 UTC NOAA

London / Heathrow Airport, United Kingdom (EGLL) 51-29N 000-27W 0M
Oct 20, 2018 - 11:50 PM EDT / 2018.10.21 0350 UTC
Wind: Variable at 3 MPH (3 KT):0
Visibility: less than 1 mile:0
Sky conditions: mostly cloudy
Weather: mist; patches of fog
Temperature: 48 F (9 C)
Dew Point: 46 F (8 C)
Relative Humidity: 93%
Pressure (altimeter): 30.39 in. Hg (1029 hPa)
ob: EGLL 210350Z VRB03KT 1400 0600SW R27R/P1500 BR BCFG BKN001 09/08 Q1029
cycle: 4

Station Type Date Time Source
EGLL TAF 2018/10/20 18:09 UTC NOAA

TAF EGLL 201653Z 2018/2124 24005KT CAVOK
BECMG 2021/2024 6000
BECMG 2100/2103 3000 BR
TEMPO 2103/2109 1200 BCFG BKN002 PROB40 2103/2108 0400 FG VV///
BECMG 2109/2112 9999 NSW
BECMG 2118/2121 36010KT BKN020
TEMPO 2120/2124 6000 -RA BKN012 PROB30
TEMPO 2121/2124 3000 RADZ BKN008


Example: see airport list